sensor_id;sensor_type;location;lat;lon;timestamp;pressure;altitude;pressure_sealevel;temperature;humidity
76598;BME280;65486;53.144;18.134;2023-04-25T00:02:04;99772.14;;;11.25;84.30
76598;BME280;65486;53.144;18.134;2023-04-25T00:04:34;99770.67;;;11.23;84.31
76598;BME280;65486;53.144;18.134;2023-04-25T00:07:01;99771.42;;;11.22;84.43
76598;BME280;65486;53.144;18.134;2023-04-25T00:09:29;99773.09;;;11.19;84.32
76598;BME280;65486;53.144;18.134;2023-04-25T00:11:59;99768.05;;;11.18;84.56
76598;BME280;65486;53.144;18.134;2023-04-25T00:14:26;99766.64;;;11.16;84.64
76598;BME280;65486;53.144;18.134;2023-04-25T00:16:54;99768.42;;;11.14;84.69
76598;BME280;65486;53.144;18.134;2023-04-25T00:19:21;99766.27;;;11.13;84.67
76598;BME280;65486;53.144;18.134;2023-04-25T00:21:55;99765.52;;;11.11;84.78
76598;BME280;65486;53.144;18.134;2023-04-25T00:24:23;99766.23;;;11.10;84.55
76598;BME280;65486;53.144;18.134;2023-04-25T00:26:57;99767.78;;;11.11;84.85
76598;BME280;65486;53.144;18.134;2023-04-25T00:29:31;99769.55;;;11.12;84.58
76598;BME280;65486;53.144;18.134;2023-04-25T00:31:59;99769.02;;;11.13;84.98
76598;BME280;65486;53.144;18.134;2023-04-25T00:34:27;99768.04;;;11.14;84.79
76598;BME280;65486;53.144;18.134;2023-04-25T00:36:54;99763.86;;;11.15;84.67
76598;BME280;65486;53.144;18.134;2023-04-25T00:39:21;99764.80;;;11.15;84.82
76598;BME280;65486;53.144;18.134;2023-04-25T00:41:47;99770.95;;;11.13;84.62
76598;BME280;65486;53.144;18.134;2023-04-25T00:44:16;99770.30;;;11.12;84.46
76598;BME280;65486;53.144;18.134;2023-04-25T00:46:44;99770.20;;;11.11;84.36
76598;BME280;65486;53.144;18.134;2023-04-25T00:49:12;99772.19;;;11.08;84.13
76598;BME280;65486;53.144;18.134;2023-04-25T00:51:45;99778.16;;;11.05;83.93
76598;BME280;65486;53.144;18.134;2023-04-25T00:54:16;99778.70;;;11.00;83.64
76598;BME280;65486;53.144;18.134;2023-04-25T00:56:43;99781.87;;;10.96;83.50
76598;BME280;65486;53.144;18.134;2023-04-25T00:59:12;99779.39;;;10.90;83.40
76598;BME280;65486;53.144;18.134;2023-04-25T01:01:41;99778.41;;;10.85;83.14
76598;BME280;65486;53.144;18.134;2023-04-25T01:04:08;99783.63;;;10.78;82.74
76598;BME280;65486;53.144;18.134;2023-04-25T01:06:35;99780.23;;;10.70;82.42
76598;BME280;65486;53.144;18.134;2023-04-25T01:09:04;99782.96;;;10.62;82.51
76598;BME280;65486;53.144;18.134;2023-04-25T01:11:33;99782.55;;;10.56;82.50
76598;BME280;65486;53.144;18.134;2023-04-25T01:14:04;99783.66;;;10.50;82.50
76598;BME280;65486;53.144;18.134;2023-04-25T01:16:31;99784.40;;;10.46;82.22
76598;BME280;65486;53.144;18.134;2023-04-25T01:19:00;99787.17;;;10.40;82.04
76598;BME280;65486;53.144;18.134;2023-04-25T01:21:28;99784.79;;;10.34;81.97
76598;BME280;65486;53.144;18.134;2023-04-25T01:23:56;99787.71;;;10.29;81.96
76598;BME280;65486;53.144;18.134;2023-04-25T01:26:24;99785.42;;;10.24;82.22
76598;BME280;65486;53.144;18.134;2023-04-25T01:28:52;99786.46;;;10.21;82.31
76598;BME280;65486;53.144;18.134;2023-04-25T01:31:19;99786.05;;;10.19;82.45
76598;BME280;65486;53.144;18.134;2023-04-25T01:33:47;99786.77;;;10.16;82.45
76598;BME280;65486;53.144;18.134;2023-04-25T01:36:15;99786.05;;;10.13;82.18
76598;BME280;65486;53.144;18.134;2023-04-25T01:38:43;99788.17;;;10.09;82.21
76598;BME280;65486;53.144;18.134;2023-04-25T01:41:14;99793.49;;;10.06;82.19
76598;BME280;65486;53.144;18.134;2023-04-25T01:43:48;99794.70;;;10.01;82.25
76598;BME280;65486;53.144;18.134;2023-04-25T01:46:27;99791.86;;;9.97;81.90
76598;BME280;65486;53.144;18.134;2023-04-25T01:48:57;99793.21;;;9.91;81.94
76598;BME280;65486;53.144;18.134;2023-04-25T01:51:24;99781.48;;;9.80;82.10
76598;BME280;65486;53.144;18.134;2023-04-25T01:53:51;99792.87;;;9.80;81.84
76598;BME280;65486;53.144;18.134;2023-04-25T01:56:19;99789.65;;;9.76;82.00
76598;BME280;65486;53.144;18.134;2023-04-25T01:58:46;99800.10;;;9.73;81.88
76598;BME280;65486;53.144;18.134;2023-04-25T02:01:32;99800.36;;;9.68;81.68
76598;BME280;65486;53.144;18.134;2023-04-25T02:04:15;99803.59;;;9.62;81.71
76598;BME280;65486;53.144;18.134;2023-04-25T02:06:42;99803.33;;;9.56;81.53
76598;BME280;65486;53.144;18.134;2023-04-25T02:09:10;99806.08;;;9.51;81.64
76598;BME280;65486;53.144;18.134;2023-04-25T02:11:43;99803.58;;;9.48;81.75
76598;BME280;65486;53.144;18.134;2023-04-25T02:14:37;99807.11;;;9.46;82.00
76598;BME280;65486;53.144;18.134;2023-04-25T02:17:27;99807.52;;;9.45;81.78
76598;BME280;65486;53.144;18.134;2023-04-25T02:19:54;99811.56;;;9.41;81.91
76598;BME280;65486;53.144;18.134;2023-04-25T02:22:21;99812.61;;;9.37;82.02
76598;BME280;65486;53.144;18.134;2023-04-25T02:24:48;99810.33;;;9.35;82.21
76598;BME280;65486;53.144;18.134;2023-04-25T02:27:15;99811.37;;;9.32;82.15
76598;BME280;65486;53.144;18.134;2023-04-25T02:29:42;99810.63;;;9.29;82.07
76598;BME280;65486;53.144;18.134;2023-04-25T02:32:11;99811.29;;;9.25;82.17
76598;BME280;65486;53.144;18.134;2023-04-25T02:34:37;99813.20;;;9.22;82.35
76598;BME280;65486;53.144;18.134;2023-04-25T02:37:04;99818.60;;;9.18;82.39
76598;BME280;65486;53.144;18.134;2023-04-25T02:39:32;99819.63;;;9.15;82.44
76598;BME280;65486;53.144;18.134;2023-04-25T02:41:58;99820.50;;;9.13;82.62
76598;BME280;65486;53.144;18.134;2023-04-25T02:44:25;99816.06;;;9.11;82.76
76598;BME280;65486;53.144;18.134;2023-04-25T02:46:52;99822.70;;;9.11;83.29
76598;BME280;65486;53.144;18.134;2023-04-25T02:49:19;99821.05;;;9.11;82.83
76598;BME280;65486;53.144;18.134;2023-04-25T02:51:47;99822.41;;;9.10;82.71
76598;BME280;65486;53.144;18.134;2023-04-25T02:54:17;99821.59;;;9.08;82.64
76598;BME280;65486;53.144;18.134;2023-04-25T02:56:46;99824.80;;;9.04;82.70
76598;BME280;65486;53.144;18.134;2023-04-25T02:59:16;99827.09;;;9.01;82.85
76598;BME280;65486;53.144;18.134;2023-04-25T03:01:44;99827.52;;;9.01;82.77
76598;BME280;65486;53.144;18.134;2023-04-25T03:04:11;99825.92;;;8.99;82.58
76598;BME280;65486;53.144;18.134;2023-04-25T03:06:38;99826.15;;;8.97;82.11
76598;BME280;65486;53.144;18.134;2023-04-25T03:09:05;99831.84;;;8.95;82.34
76598;BME280;65486;53.144;18.134;2023-04-25T03:11:38;99827.41;;;8.88;82.03
76598;BME280;65486;53.144;18.134;2023-04-25T03:14:06;99834.21;;;8.88;82.08
76598;BME280;65486;53.144;18.134;2023-04-25T03:16:34;99833.22;;;8.85;82.15
76598;BME280;65486;53.144;18.134;2023-04-25T03:19:02;99833.27;;;8.84;82.26
76598;BME280;65486;53.144;18.134;2023-04-25T03:21:29;99838.08;;;8.80;81.73
76598;BME280;65486;53.144;18.134;2023-04-25T03:23:59;99837.04;;;8.76;81.88
76598;BME280;65486;53.144;18.134;2023-04-25T03:26:26;99841.05;;;8.73;81.52
76598;BME280;65486;53.144;18.134;2023-04-25T03:28:55;99840.23;;;8.66;81.48
76598;BME280;65486;53.144;18.134;2023-04-25T03:31:22;99841.50;;;8.63;81.71
76598;BME280;65486;53.144;18.134;2023-04-25T03:33:50;99840.15;;;8.60;81.74
76598;BME280;65486;53.144;18.134;2023-04-25T03:36:20;99838.44;;;8.58;81.60
76598;BME280;65486;53.144;18.134;2023-04-25T03:38:47;99844.74;;;8.55;81.94
76598;BME280;65486;53.144;18.134;2023-04-25T03:41:16;99841.39;;;8.49;81.55
76598;BME280;65486;53.144;18.134;2023-04-25T03:43:48;99847.61;;;8.45;81.57
76598;BME280;65486;53.144;18.134;2023-04-25T03:46:18;99849.29;;;8.43;81.66
76598;BME280;65486;53.144;18.134;2023-04-25T03:48:45;99851.45;;;8.39;81.75
76598;BME280;65486;53.144;18.134;2023-04-25T03:51:16;99853.54;;;8.38;81.66
76598;BME280;65486;53.144;18.134;2023-04-25T03:53:48;99855.45;;;8.33;81.46
76598;BME280;65486;53.144;18.134;2023-04-25T03:56:20;99861.73;;;8.32;81.60
76598;BME280;65486;53.144;18.134;2023-04-25T03:58:50;99864.30;;;8.32;81.70
76598;BME280;65486;53.144;18.134;2023-04-25T04:01:20;99870.29;;;8.33;81.42
76598;BME280;65486;53.144;18.134;2023-04-25T04:03:48;99870.45;;;8.34;81.49
76598;BME280;65486;53.144;18.134;2023-04-25T04:06:18;99876.17;;;8.36;81.46
76598;BME280;65486;53.144;18.134;2023-04-25T04:08:56;99883.94;;;8.36;81.54
76598;BME280;65486;53.144;18.134;2023-04-25T04:11:34;99879.90;;;8.35;81.36
76598;BME280;65486;53.144;18.134;2023-04-25T04:14:06;99885.49;;;8.33;81.05
76598;BME280;65486;53.144;18.134;2023-04-25T04:16:35;99885.20;;;8.34;81.27
76598;BME280;65486;53.144;18.134;2023-04-25T04:19:05;99887.84;;;8.36;80.97
76598;BME280;65486;53.144;18.134;2023-04-25T04:21:32;99892.71;;;8.38;80.95
76598;BME280;65486;53.144;18.134;2023-04-25T04:24:01;99892.84;;;8.38;80.68
76598;BME280;65486;53.144;18.134;2023-04-25T04:26:31;99898.74;;;8.39;80.71
76598;BME280;65486;53.144;18.134;2023-04-25T04:29:11;99901.23;;;8.41;80.66
76598;BME280;65486;53.144;18.134;2023-04-25T04:31:48;99904.77;;;8.43;80.35
76598;BME280;65486;53.144;18.134;2023-04-25T04:34:21;99903.52;;;8.43;80.22
76598;BME280;65486;53.144;18.134;2023-04-25T04:36:54;99908.37;;;8.43;80.28
76598;BME280;65486;53.144;18.134;2023-04-25T04:39:24;99906.77;;;8.44;80.25
76598;BME280;65486;53.144;18.134;2023-04-25T04:42:14;99909.34;;;8.46;79.78
76598;BME280;65486;53.144;18.134;2023-04-25T04:45:05;99909.54;;;8.47;79.95
76598;BME280;65486;53.144;18.134;2023-04-25T04:47:45;99908.73;;;8.49;79.53
76598;BME280;65486;53.144;18.134;2023-04-25T04:50:21;99906.05;;;8.50;79.47
76598;BME280;65486;53.144;18.134;2023-04-25T04:53:14;99907.79;;;8.51;79.68
76598;BME280;65486;53.144;18.134;2023-04-25T04:55:41;99907.99;;;8.50;79.40
76598;BME280;65486;53.144;18.134;2023-04-25T04:58:22;99909.36;;;8.49;79.38
76598;BME280;65486;53.144;18.134;2023-04-25T05:01:16;99908.98;;;8.47;79.51
76598;BME280;65486;53.144;18.134;2023-04-25T05:04:09;99910.10;;;8.44;79.25
76598;BME280;65486;53.144;18.134;2023-04-25T05:06:54;99915.81;;;8.42;79.19
76598;BME280;65486;53.144;18.134;2023-04-25T05:09:40;99920.05;;;8.42;79.47
76598;BME280;65486;53.144;18.134;2023-04-25T05:12:10;99920.54;;;8.40;79.11
76598;BME280;65486;53.144;18.134;2023-04-25T05:14:57;99918.48;;;8.38;78.77
76598;BME280;65486;53.144;18.134;2023-04-25T05:17:43;99918.87;;;8.38;78.95
76598;BME280;65486;53.144;18.134;2023-04-25T05:20:37;99916.88;;;8.39;79.00
76598;BME280;65486;53.144;18.134;2023-04-25T05:23:24;99915.48;;;8.42;79.07
76598;BME280;65486;53.144;18.134;2023-04-25T05:26:04;99917.28;;;8.45;78.77
76598;BME280;65486;53.144;18.134;2023-04-25T05:28:38;99922.02;;;8.47;78.53
76598;BME280;65486;53.144;18.134;2023-04-25T05:31:36;99920.05;;;8.52;78.23
76598;BME280;65486;53.144;18.134;2023-04-25T05:34:11;99924.77;;;8.57;78.62
76598;BME280;65486;53.144;18.134;2023-04-25T05:36:50;99924.75;;;8.66;78.02
76598;BME280;65486;53.144;18.134;2023-04-25T05:39:18;99927.13;;;8.74;77.80
76598;BME280;65486;53.144;18.134;2023-04-25T05:42:03;99928.83;;;8.83;77.78
76598;BME280;65486;53.144;18.134;2023-04-25T05:45:08;99929.88;;;8.97;77.45
76598;BME280;65486;53.144;18.134;2023-04-25T05:47:51;99935.14;;;9.13;77.03
76598;BME280;65486;53.144;18.134;2023-04-25T05:50:41;99931.39;;;9.29;76.94
76598;BME280;65486;53.144;18.134;2023-04-25T05:53:20;99931.23;;;9.39;76.38
76598;BME280;65486;53.144;18.134;2023-04-25T05:55:54;99934.28;;;9.54;75.65
76598;BME280;65486;53.144;18.134;2023-04-25T05:58:24;99929.70;;;9.72;75.69
76598;BME280;65486;53.144;18.134;2023-04-25T06:00:51;99925.73;;;9.89;74.83
76598;BME280;65486;53.144;18.134;2023-04-25T06:03:18;99933.33;;;10.14;74.61
76598;BME280;65486;53.144;18.134;2023-04-25T06:05:45;99932.21;;;10.26;74.60
76598;BME280;65486;53.144;18.134;2023-04-25T06:08:12;99933.92;;;10.54;74.06
76598;BME280;65486;53.144;18.134;2023-04-25T06:10:40;99931.19;;;11.39;71.78
76598;BME280;65486;53.144;18.134;2023-04-25T06:13:10;99929.23;;;12.68;69.15
76598;BME280;65486;53.144;18.134;2023-04-25T06:15:41;99928.83;;;13.65;66.05
76598;BME280;65486;53.144;18.134;2023-04-25T06:18:10;99924.81;;;13.81;64.98
76598;BME280;65486;53.144;18.134;2023-04-25T06:20:39;99926.28;;;13.78;64.67
76598;BME280;65486;53.144;18.134;2023-04-25T06:23:08;99926.48;;;13.76;65.56
76598;BME280;65486;53.144;18.134;2023-04-25T06:26:01;99927.23;;;13.67;65.82
76598;BME280;65486;53.144;18.134;2023-04-25T06:28:29;99928.30;;;13.50;64.42
76598;BME280;65486;53.144;18.134;2023-04-25T06:30:57;99928.67;;;13.36;64.69
76598;BME280;65486;53.144;18.134;2023-04-25T06:33:23;99931.88;;;13.47;64.92
76598;BME280;65486;53.144;18.134;2023-04-25T06:35:52;99930.99;;;13.71;64.06
76598;BME280;65486;53.144;18.134;2023-04-25T06:38:25;99930.06;;;14.00;63.62
76598;BME280;65486;53.144;18.134;2023-04-25T06:40:53;99923.91;;;14.47;62.85
76598;BME280;65486;53.144;18.134;2023-04-25T06:43:20;99921.38;;;15.01;61.10
76598;BME280;65486;53.144;18.134;2023-04-25T06:46:10;99920.42;;;15.60;58.59
76598;BME280;65486;53.144;18.134;2023-04-25T06:48:42;99921.71;;;15.84;56.41
76598;BME280;65486;53.144;18.134;2023-04-25T06:51:09;99910.37;;;16.33;56.50
76598;BME280;65486;53.144;18.134;2023-04-25T06:53:37;99918.70;;;17.36;54.19
76598;BME280;65486;53.144;18.134;2023-04-25T06:56:06;99916.40;;;18.01;53.52
76598;BME280;65486;53.144;18.134;2023-04-25T06:58:45;99916.52;;;18.30;51.58
76598;BME280;65486;53.144;18.134;2023-04-25T07:01:32;99914.95;;;18.30;51.17
76598;BME280;65486;53.144;18.134;2023-04-25T07:04:00;99914.70;;;18.28;50.28
76598;BME280;65486;53.144;18.134;2023-04-25T07:06:32;99911.75;;;18.33;49.28
76598;BME280;65486;53.144;18.134;2023-04-25T07:09:06;99910.73;;;18.72;49.46
76598;BME280;65486;53.144;18.134;2023-04-25T07:11:53;99906.42;;;18.51;48.89
76598;BME280;65486;53.144;18.134;2023-04-25T07:14:27;99912.21;;;17.75;50.77
76598;BME280;65486;53.144;18.134;2023-04-25T07:16:55;99914.72;;;17.57;51.81
76598;BME280;65486;53.144;18.134;2023-04-25T07:19:26;99918.63;;;17.69;52.05
76598;BME280;65486;53.144;18.134;2023-04-25T07:21:54;99919.77;;;17.93;51.22
76598;BME280;65486;53.144;18.134;2023-04-25T07:24:22;99917.50;;;18.63;49.94
76598;BME280;65486;53.144;18.134;2023-04-25T07:26:55;99912.44;;;19.54;45.57
76598;BME280;65486;53.144;18.134;2023-04-25T07:29:22;99909.73;;;19.86;46.07
76598;BME280;65486;53.144;18.134;2023-04-25T07:31:56;99921.20;;;19.87;45.83
76598;BME280;65486;53.144;18.134;2023-04-25T07:34:24;99920.14;;;19.58;45.19
76598;BME280;65486;53.144;18.134;2023-04-25T07:36:54;99921.83;;;18.87;47.62
76598;BME280;65486;53.144;18.134;2023-04-25T07:39:23;99926.17;;;19.30;46.80
76598;BME280;65486;53.144;18.134;2023-04-25T07:41:54;99924.02;;;19.08;47.10
76598;BME280;65486;53.144;18.134;2023-04-25T07:44:24;99919.06;;;18.93;46.45
76598;BME280;65486;53.144;18.134;2023-04-25T07:46:52;99919.43;;;18.86;47.26
76598;BME280;65486;53.144;18.134;2023-04-25T07:49:21;99919.28;;;18.49;47.15
76598;BME280;65486;53.144;18.134;2023-04-25T07:51:49;99921.08;;;19.22;45.87
76598;BME280;65486;53.144;18.134;2023-04-25T07:54:19;99924.64;;;19.69;44.68
76598;BME280;65486;53.144;18.134;2023-04-25T07:56:49;99923.70;;;20.34;43.13
76598;BME280;65486;53.144;18.134;2023-04-25T07:59:21;99923.44;;;19.99;43.32
76598;BME280;65486;53.144;18.134;2023-04-25T08:01:51;99928.04;;;19.25;44.20
76598;BME280;65486;53.144;18.134;2023-04-25T08:04:19;99930.71;;;18.45;44.64
76598;BME280;65486;53.144;18.134;2023-04-25T08:07:04;99934.84;;;17.68;45.84
76598;BME280;65486;53.144;18.134;2023-04-25T08:09:39;99930.10;;;17.02;47.21
76598;BME280;65486;53.144;18.134;2023-04-25T08:12:25;99933.89;;;16.55;48.21
76598;BME280;65486;53.144;18.134;2023-04-25T08:14:52;99935.50;;;16.11;49.01
76598;BME280;65486;53.144;18.134;2023-04-25T08:17:20;99938.67;;;15.74;49.51
76598;BME280;65486;53.144;18.134;2023-04-25T08:19:47;99943.31;;;15.41;50.22
76598;BME280;65486;53.144;18.134;2023-04-25T08:22:23;99946.48;;;15.12;50.29
76598;BME280;65486;53.144;18.134;2023-04-25T08:24:55;99947.55;;;14.87;50.92
76598;BME280;65486;53.144;18.134;2023-04-25T08:27:27;99953.48;;;14.65;51.28
76598;BME280;65486;53.144;18.134;2023-04-25T08:30:08;99951.42;;;14.44;52.09
76598;BME280;65486;53.144;18.134;2023-04-25T08:32:40;99961.30;;;14.24;52.54
76598;BME280;65486;53.144;18.134;2023-04-25T08:35:36;99964.85;;;14.02;53.15
76598;BME280;65486;53.144;18.134;2023-04-25T08:38:04;99959.39;;;13.90;53.52
76598;BME280;65486;53.144;18.134;2023-04-25T08:40:37;99963.72;;;13.92;54.14
76598;BME280;65486;53.144;18.134;2023-04-25T08:43:19;99962.64;;;13.97;54.34
76598;BME280;65486;53.144;18.134;2023-04-25T08:45:49;99965.63;;;13.97;54.19
76598;BME280;65486;53.144;18.134;2023-04-25T08:48:34;99963.73;;;13.99;54.56
76598;BME280;65486;53.144;18.134;2023-04-25T08:51:08;99967.75;;;13.98;55.10
76598;BME280;65486;53.144;18.134;2023-04-25T08:53:45;99967.23;;;14.01;54.86
76598;BME280;65486;53.144;18.134;2023-04-25T08:56:16;99964.39;;;14.23;54.47
76598;BME280;65486;53.144;18.134;2023-04-25T08:58:59;99955.63;;;14.53;54.00
76598;BME280;65486;53.144;18.134;2023-04-25T09:01:28;99966.41;;;14.84;53.06
76598;BME280;65486;53.144;18.134;2023-04-25T09:03:57;99962.55;;;15.05;53.11
76598;BME280;65486;53.144;18.134;2023-04-25T09:06:25;99959.05;;;15.21;52.55
76598;BME280;65486;53.144;18.134;2023-04-25T09:08:52;99961.31;;;15.19;52.67
76598;BME280;65486;53.144;18.134;2023-04-25T09:11:22;99964.84;;;15.09;53.16
76598;BME280;65486;53.144;18.134;2023-04-25T09:14:13;99968.86;;;14.89;52.61
76598;BME280;65486;53.144;18.134;2023-04-25T09:17:13;99975.17;;;14.45;53.08
76598;BME280;65486;53.144;18.134;2023-04-25T09:19:53;99984.46;;;14.14;53.79
76598;BME280;65486;53.144;18.134;2023-04-25T09:22:28;99988.89;;;13.82;54.30
76598;BME280;65486;53.144;18.134;2023-04-25T09:25:09;99995.66;;;13.54;54.65
76598;BME280;65486;53.144;18.134;2023-04-25T09:27:53;99995.92;;;13.29;55.57
76598;BME280;65486;53.144;18.134;2023-04-25T09:30:33;99993.30;;;13.13;56.15
76598;BME280;65486;53.144;18.134;2023-04-25T09:33:20;99995.88;;;13.07;56.65
76598;BME280;65486;53.144;18.134;2023-04-25T09:35:50;99994.73;;;13.08;56.66
76598;BME280;65486;53.144;18.134;2023-04-25T09:38:46;99997.42;;;13.19;56.61
76598;BME280;65486;53.144;18.134;2023-04-25T09:41:24;99998.57;;;13.31;56.19
76598;BME280;65486;53.144;18.134;2023-04-25T09:43:51;99998.47;;;13.42;56.19
76598;BME280;65486;53.144;18.134;2023-04-25T09:46:18;99998.88;;;13.59;56.11
76598;BME280;65486;53.144;18.134;2023-04-25T09:48:51;100001.84;;;13.84;55.38
76598;BME280;65486;53.144;18.134;2023-04-25T09:51:29;100000.01;;;14.38;54.52
76598;BME280;65486;53.144;18.134;2023-04-25T09:53:58;99993.41;;;14.70;53.30
76598;BME280;65486;53.144;18.134;2023-04-25T09:56:36;99999.70;;;14.91;52.93
76598;BME280;65486;53.144;18.134;2023-04-25T09:59:08;99999.14;;;15.04;52.54
76598;BME280;65486;53.144;18.134;2023-04-25T10:01:37;100003.83;;;15.24;51.86
76598;BME280;65486;53.144;18.134;2023-04-25T10:04:24;100000.48;;;15.54;51.42
76598;BME280;65486;53.144;18.134;2023-04-25T10:07:29;99998.77;;;16.63;49.66
76598;BME280;65486;53.144;18.134;2023-04-25T10:10:02;99996.96;;;16.98;48.25
76598;BME280;65486;53.144;18.134;2023-04-25T10:12:30;99990.86;;;16.92;46.27
76598;BME280;65486;53.144;18.134;2023-04-25T10:15:02;99996.66;;;16.66;46.93
76598;BME280;65486;53.144;18.134;2023-04-25T10:17:31;99998.30;;;16.39;47.95
76598;BME280;65486;53.144;18.134;2023-04-25T10:20:02;100001.54;;;16.10;48.75
76598;BME280;65486;53.144;18.134;2023-04-25T10:22:38;100004.16;;;15.74;48.15
76598;BME280;65486;53.144;18.134;2023-04-25T10:25:06;100009.23;;;15.29;49.35
76598;BME280;65486;53.144;18.134;2023-04-25T10:27:38;100010.00;;;14.89;50.28
76598;BME280;65486;53.144;18.134;2023-04-25T10:30:14;100013.27;;;14.58;50.99
76598;BME280;65486;53.144;18.134;2023-04-25T10:32:42;100016.31;;;14.36;50.93
76598;BME280;65486;53.144;18.134;2023-04-25T10:35:28;100021.58;;;14.17;50.59
76598;BME280;65486;53.144;18.134;2023-04-25T10:38:04;100025.04;;;14.00;51.60
76598;BME280;65486;53.144;18.134;2023-04-25T10:40:32;100024.78;;;13.84;52.17
76598;BME280;65486;53.144;18.134;2023-04-25T10:43:36;100026.27;;;13.78;52.62
76598;BME280;65486;53.144;18.134;2023-04-25T10:48:51;100025.45;;;13.74;52.53
76598;BME280;65486;53.144;18.134;2023-04-25T10:56:25;100026.30;;;13.76;52.10
76598;BME280;65486;53.144;18.134;2023-04-25T10:59:05;100026.25;;;13.87;52.24
76598;BME280;65486;53.144;18.134;2023-04-25T11:01:41;100023.56;;;14.03;52.43
76598;BME280;65486;53.144;18.134;2023-04-25T11:04:31;100020.97;;;14.23;52.60
76598;BME280;65486;53.144;18.134;2023-04-25T11:09:39;100015.23;;;14.44;51.66
76598;BME280;65486;53.144;18.134;2023-04-25T11:12:08;100014.75;;;14.57;51.40
76598;BME280;65486;53.144;18.134;2023-04-25T11:14:35;100014.06;;;14.69;50.42
76598;BME280;65486;53.144;18.134;2023-04-25T11:17:04;100016.48;;;14.77;50.47
76598;BME280;65486;53.144;18.134;2023-04-25T11:19:35;100018.38;;;14.78;50.35
76598;BME280;65486;53.144;18.134;2023-04-25T11:22:03;100020.45;;;14.80;50.16
76598;BME280;65486;53.144;18.134;2023-04-25T11:24:34;100025.36;;;14.75;50.32
76598;BME280;65486;53.144;18.134;2023-04-25T11:27:04;100025.58;;;14.66;50.70
76598;BME280;65486;53.144;18.134;2023-04-25T11:29:33;100024.81;;;14.58;50.81
76598;BME280;65486;53.144;18.134;2023-04-25T11:32:09;100024.98;;;14.49;51.09
76598;BME280;65486;53.144;18.134;2023-04-25T11:34:37;100032.57;;;14.41;51.17
76598;BME280;65486;53.144;18.134;2023-04-25T11:37:04;100029.22;;;14.29;52.03
76598;BME280;65486;53.144;18.134;2023-04-25T11:39:32;100027.41;;;14.18;52.06
76598;BME280;65486;53.144;18.134;2023-04-25T11:41:59;100026.77;;;14.08;52.17
76598;BME280;65486;53.144;18.134;2023-04-25T11:44:28;100030.41;;;13.99;52.59
76598;BME280;65486;53.144;18.134;2023-04-25T11:46:55;100031.30;;;14.00;52.23
76598;BME280;65486;53.144;18.134;2023-04-25T11:49:22;100031.58;;;14.01;52.31
76598;BME280;65486;53.144;18.134;2023-04-25T11:51:52;100032.84;;;14.05;52.20
76598;BME280;65486;53.144;18.134;2023-04-25T11:54:23;100032.77;;;14.08;52.36
76598;BME280;65486;53.144;18.134;2023-04-25T11:56:57;100039.42;;;14.03;52.30
76598;BME280;65486;53.144;18.134;2023-04-25T11:59:24;100040.42;;;13.92;52.52
76598;BME280;65486;53.144;18.134;2023-04-25T12:01:52;100044.45;;;13.79;52.67
76598;BME280;65486;53.144;18.134;2023-04-25T12:04:21;100045.17;;;13.68;52.84
76598;BME280;65486;53.144;18.134;2023-04-25T12:06:54;100043.02;;;13.59;53.37
76598;BME280;65486;53.144;18.134;2023-04-25T12:09:32;100042.61;;;13.55;53.80
76598;BME280;65486;53.144;18.134;2023-04-25T12:12:00;100043.86;;;13.54;54.03
76598;BME280;65486;53.144;18.134;2023-04-25T12:14:34;100045.23;;;13.52;54.19
76598;BME280;65486;53.144;18.134;2023-04-25T12:17:03;100046.69;;;13.50;53.81
76598;BME280;65486;53.144;18.134;2023-04-25T12:19:35;100055.45;;;13.45;53.58
76598;BME280;65486;53.144;18.134;2023-04-25T12:22:18;100051.67;;;13.40;53.95
76598;BME280;65486;53.144;18.134;2023-04-25T12:24:47;100054.98;;;13.44;54.16
76598;BME280;65486;53.144;18.134;2023-04-25T12:27:19;100052.60;;;13.49;53.47
76598;BME280;65486;53.144;18.134;2023-04-25T12:29:54;100048.27;;;13.57;53.46
76598;BME280;65486;53.144;18.134;2023-04-25T12:32:21;100053.76;;;13.67;53.64
76598;BME280;65486;53.144;18.134;2023-04-25T12:34:50;100047.71;;;13.72;53.14
76598;BME280;65486;53.144;18.134;2023-04-25T12:37:18;100047.91;;;13.76;53.22
76598;BME280;65486;53.144;18.134;2023-04-25T12:39:44;100044.98;;;13.78;53.23
76598;BME280;65486;53.144;18.134;2023-04-25T12:42:22;100048.32;;;13.88;53.47
76598;BME280;65486;53.144;18.134;2023-04-25T12:44:49;100047.30;;;14.02;53.18
76598;BME280;65486;53.144;18.134;2023-04-25T12:47:20;100042.34;;;14.19;52.21
76598;BME280;65486;53.144;18.134;2023-04-25T12:49:49;100042.19;;;14.28;51.85
76598;BME280;65486;53.144;18.134;2023-04-25T12:52:25;100045.63;;;14.37;52.01
76598;BME280;65486;53.144;18.134;2023-04-25T12:54:53;100041.52;;;14.43;51.83
76598;BME280;65486;53.144;18.134;2023-04-25T12:57:20;100041.54;;;14.45;51.64
76598;BME280;65486;53.144;18.134;2023-04-25T12:59:47;100038.98;;;14.44;51.93
76598;BME280;65486;53.144;18.134;2023-04-25T13:02:14;100035.73;;;14.42;51.30
76598;BME280;65486;53.144;18.134;2023-04-25T13:04:46;100030.41;;;14.41;51.43
76598;BME280;65486;53.144;18.134;2023-04-25T13:07:14;100026.98;;;14.44;51.85
76598;BME280;65486;53.144;18.134;2023-04-25T13:09:42;100030.40;;;14.41;51.73
76598;BME280;65486;53.144;18.134;2023-04-25T13:12:12;100033.61;;;14.35;51.63
76598;BME280;65486;53.144;18.134;2023-04-25T13:17:48;100036.73;;;14.06;51.81
76598;BME280;65486;53.144;18.134;2023-04-25T13:20:25;100038.05;;;13.99;51.76
76598;BME280;65486;53.144;18.134;2023-04-25T13:22:53;100039.52;;;13.94;51.89
76598;BME280;65486;53.144;18.134;2023-04-25T13:25:20;100045.40;;;13.90;52.03
76598;BME280;65486;53.144;18.134;2023-04-25T13:27:48;100050.23;;;13.91;52.43
76598;BME280;65486;53.144;18.134;2023-04-25T13:30:15;100049.36;;;13.93;52.60
76598;BME280;65486;53.144;18.134;2023-04-25T13:32:44;100053.60;;;13.84;52.32